sensor_id;sensor_type;location;lat;lon;timestamp;P1;durP1;ratioP1;P2;durP2;ratioP2
31128;SDS011;17777;48.770;8.944;2023-05-29T00:00:19;4.07;;;2.78;;
31128;SDS011;17777;48.770;8.944;2023-05-29T00:02:46;3.25;;;2.28;;
31128;SDS011;17777;48.770;8.944;2023-05-29T00:05:13;2.63;;;2.10;;
31128;SDS011;17777;48.770;8.944;2023-05-29T00:07:40;4.38;;;2.40;;
31128;SDS011;17777;48.770;8.944;2023-05-29T00:10:07;3.80;;;2.38;;
31128;SDS011;17777;48.770;8.944;2023-05-29T00:12:35;3.47;;;2.45;;
31128;SDS011;17777;48.770;8.944;2023-05-29T00:15:02;3.15;;;2.28;;
31128;SDS011;17777;48.770;8.944;2023-05-29T00:17:29;4.53;;;2.40;;
31128;SDS011;17777;48.770;8.944;2023-05-29T00:19:57;4.13;;;2.63;;
31128;SDS011;17777;48.770;8.944;2023-05-29T00:22:24;4.45;;;2.85;;
31128;SDS011;17777;48.770;8.944;2023-05-29T00:24:53;4.28;;;2.50;;
31128;SDS011;17777;48.770;8.944;2023-05-29T00:27:18;3.10;;;2.22;;
31128;SDS011;17777;48.770;8.944;2023-05-29T00:29:45;4.88;;;2.83;;
31128;SDS011;17777;48.770;8.944;2023-05-29T00:32:11;4.20;;;2.72;;
31128;SDS011;17777;48.770;8.944;2023-05-29T00:34:37;3.88;;;2.33;;
31128;SDS011;17777;48.770;8.944;2023-05-29T00:37:03;2.85;;;2.10;;
31128;SDS011;17777;48.770;8.944;2023-05-29T00:39:29;4.90;;;2.30;;
31128;SDS011;17777;48.770;8.944;2023-05-29T00:41:56;3.90;;;2.35;;
31128;SDS011;17777;48.770;8.944;2023-05-29T00:44:22;4.88;;;2.40;;
31128;SDS011;17777;48.770;8.944;2023-05-29T00:46:49;3.08;;;2.40;;
31128;SDS011;17777;48.770;8.944;2023-05-29T00:49:20;3.17;;;2.25;;
31128;SDS011;17777;48.770;8.944;2023-05-29T00:51:47;4.47;;;2.75;;
31128;SDS011;17777;48.770;8.944;2023-05-29T00:54:17;2.47;;;2.15;;
31128;SDS011;17777;48.770;8.944;2023-05-29T00:56:47;2.72;;;2.15;;
31128;SDS011;17777;48.770;8.944;2023-05-29T00:59:13;3.22;;;2.50;;
31128;SDS011;17777;48.770;8.944;2023-05-29T01:01:39;4.55;;;2.45;;
31128;SDS011;17777;48.770;8.944;2023-05-29T01:04:05;2.85;;;2.08;;
31128;SDS011;17777;48.770;8.944;2023-05-29T01:06:32;3.22;;;1.90;;
31128;SDS011;17777;48.770;8.944;2023-05-29T01:08:58;4.95;;;2.30;;
31128;SDS011;17777;48.770;8.944;2023-05-29T01:13:59;3.47;;;2.13;;
31128;SDS011;17777;48.770;8.944;2023-05-29T01:16:36;3.63;;;2.35;;
31128;SDS011;17777;48.770;8.944;2023-05-29T01:19:54;3.50;;;2.22;;
31128;SDS011;17777;48.770;8.944;2023-05-29T01:23:00;4.93;;;2.28;;
31128;SDS011;17777;48.770;8.944;2023-05-29T01:28:32;4.50;;;2.05;;
31128;SDS011;17777;48.770;8.944;2023-05-29T01:31:28;3.25;;;2.45;;
31128;SDS011;17777;48.770;8.944;2023-05-29T01:33:57;3.33;;;1.85;;
31128;SDS011;17777;48.770;8.944;2023-05-29T01:36:24;3.88;;;2.40;;
31128;SDS011;17777;48.770;8.944;2023-05-29T01:38:52;3.28;;;2.42;;
31128;SDS011;17777;48.770;8.944;2023-05-29T01:41:20;3.00;;;2.35;;
31128;SDS011;17777;48.770;8.944;2023-05-29T01:43:48;3.50;;;1.90;;
31128;SDS011;17777;48.770;8.944;2023-05-29T01:46:16;2.72;;;2.08;;
31128;SDS011;17777;48.770;8.944;2023-05-29T01:48:44;2.42;;;1.92;;
31128;SDS011;17777;48.770;8.944;2023-05-29T01:51:10;4.43;;;2.50;;
31128;SDS011;17777;48.770;8.944;2023-05-29T01:53:41;2.90;;;2.17;;
31128;SDS011;17777;48.770;8.944;2023-05-29T01:56:09;2.60;;;2.10;;
31128;SDS011;17777;48.770;8.944;2023-05-29T01:58:36;4.32;;;2.40;;
31128;SDS011;17777;48.770;8.944;2023-05-29T02:01:05;3.00;;;2.03;;
31128;SDS011;17777;48.770;8.944;2023-05-29T02:03:33;6.43;;;2.25;;
31128;SDS011;17777;48.770;8.944;2023-05-29T02:05:59;3.30;;;2.20;;
31128;SDS011;17777;48.770;8.944;2023-05-29T02:08:25;3.20;;;2.42;;
31128;SDS011;17777;48.770;8.944;2023-05-29T02:10:52;3.35;;;2.25;;
31128;SDS011;17777;48.770;8.944;2023-05-29T02:13:18;2.80;;;2.00;;
31128;SDS011;17777;48.770;8.944;2023-05-29T02:15:46;3.05;;;2.05;;
31128;SDS011;17777;48.770;8.944;2023-05-29T02:18:13;5.53;;;2.03;;
31128;SDS011;17777;48.770;8.944;2023-05-29T02:20:40;2.33;;;2.10;;
31128;SDS011;17777;48.770;8.944;2023-05-29T02:23:09;2.95;;;2.10;;
31128;SDS011;17777;48.770;8.944;2023-05-29T02:25:35;3.70;;;2.22;;
31128;SDS011;17777;48.770;8.944;2023-05-29T02:28:02;3.03;;;2.42;;
31128;SDS011;17777;48.770;8.944;2023-05-29T02:30:28;3.42;;;2.22;;
31128;SDS011;17777;48.770;8.944;2023-05-29T02:32:55;2.75;;;2.03;;
31128;SDS011;17777;48.770;8.944;2023-05-29T02:35:21;2.63;;;2.25;;
31128;SDS011;17777;48.770;8.944;2023-05-29T02:37:50;2.70;;;2.15;;
31128;SDS011;17777;48.770;8.944;2023-05-29T02:40:17;3.17;;;2.28;;
31128;SDS011;17777;48.770;8.944;2023-05-29T02:42:44;2.28;;;1.98;;
31128;SDS011;17777;48.770;8.944;2023-05-29T02:45:10;2.78;;;2.22;;
31128;SDS011;17777;48.770;8.944;2023-05-29T02:47:37;3.92;;;2.33;;
31128;SDS011;17777;48.770;8.944;2023-05-29T02:50:04;3.85;;;2.72;;
31128;SDS011;17777;48.770;8.944;2023-05-29T02:52:34;3.38;;;2.20;;
31128;SDS011;17777;48.770;8.944;2023-05-29T02:55:02;3.22;;;2.38;;
31128;SDS011;17777;48.770;8.944;2023-05-29T02:57:31;3.28;;;2.60;;
31128;SDS011;17777;48.770;8.944;2023-05-29T02:59:57;4.75;;;2.30;;
31128;SDS011;17777;48.770;8.944;2023-05-29T03:02:24;3.85;;;2.20;;
31128;SDS011;17777;48.770;8.944;2023-05-29T03:04:50;3.53;;;2.20;;
31128;SDS011;17777;48.770;8.944;2023-05-29T03:07:18;3.63;;;2.08;;
31128;SDS011;17777;48.770;8.944;2023-05-29T03:09:44;2.75;;;2.10;;
31128;SDS011;17777;48.770;8.944;2023-05-29T03:12:10;2.53;;;2.00;;
31128;SDS011;17777;48.770;8.944;2023-05-29T03:14:37;2.90;;;2.13;;
31128;SDS011;17777;48.770;8.944;2023-05-29T03:17:07;2.92;;;1.88;;
31128;SDS011;17777;48.770;8.944;2023-05-29T03:19:33;3.05;;;2.28;;
31128;SDS011;17777;48.770;8.944;2023-05-29T03:21:59;3.67;;;2.33;;
31128;SDS011;17777;48.770;8.944;2023-05-29T03:24:28;4.28;;;2.63;;
31128;SDS011;17777;48.770;8.944;2023-05-29T03:26:54;4.82;;;2.42;;
31128;SDS011;17777;48.770;8.944;2023-05-29T03:29:21;3.30;;;2.20;;
31128;SDS011;17777;48.770;8.944;2023-05-29T03:31:47;3.95;;;2.35;;
31128;SDS011;17777;48.770;8.944;2023-05-29T03:34:19;4.05;;;2.35;;
31128;SDS011;17777;48.770;8.944;2023-05-29T03:36:53;3.95;;;2.03;;
31128;SDS011;17777;48.770;8.944;2023-05-29T03:39:19;3.25;;;2.13;;
31128;SDS011;17777;48.770;8.944;2023-05-29T03:41:46;2.22;;;2.00;;
31128;SDS011;17777;48.770;8.944;2023-05-29T03:44:12;2.83;;;1.88;;
31128;SDS011;17777;48.770;8.944;2023-05-29T03:46:39;3.05;;;1.83;;
31128;SDS011;17777;48.770;8.944;2023-05-29T03:49:05;3.17;;;2.13;;
31128;SDS011;17777;48.770;8.944;2023-05-29T03:51:32;2.90;;;2.35;;
31128;SDS011;17777;48.770;8.944;2023-05-29T03:53:58;2.70;;;2.05;;
31128;SDS011;17777;48.770;8.944;2023-05-29T03:56:24;3.13;;;2.25;;
31128;SDS011;17777;48.770;8.944;2023-05-29T03:58:51;3.90;;;2.15;;
31128;SDS011;17777;48.770;8.944;2023-05-29T04:01:18;3.03;;;2.53;;
31128;SDS011;17777;48.770;8.944;2023-05-29T04:03:44;3.40;;;2.65;;
31128;SDS011;17777;48.770;8.944;2023-05-29T04:06:12;3.28;;;2.50;;
31128;SDS011;17777;48.770;8.944;2023-05-29T04:08:38;3.35;;;2.25;;
31128;SDS011;17777;48.770;8.944;2023-05-29T04:11:06;2.92;;;2.17;;
31128;SDS011;17777;48.770;8.944;2023-05-29T04:13:32;3.13;;;2.35;;
31128;SDS011;17777;48.770;8.944;2023-05-29T04:15:58;4.05;;;2.80;;
31128;SDS011;17777;48.770;8.944;2023-05-29T04:18:24;5.30;;;2.72;;
31128;SDS011;17777;48.770;8.944;2023-05-29T04:20:51;6.03;;;2.42;;
31128;SDS011;17777;48.770;8.944;2023-05-29T04:23:19;5.22;;;2.33;;
31128;SDS011;17777;48.770;8.944;2023-05-29T04:25:45;3.53;;;2.22;;
31128;SDS011;17777;48.770;8.944;2023-05-29T04:28:14;3.28;;;2.33;;
31128;SDS011;17777;48.770;8.944;2023-05-29T04:30:40;2.85;;;1.73;;
31128;SDS011;17777;48.770;8.944;2023-05-29T04:33:07;3.60;;;1.83;;
31128;SDS011;17777;48.770;8.944;2023-05-29T04:35:35;3.75;;;2.45;;
31128;SDS011;17777;48.770;8.944;2023-05-29T04:38:05;3.80;;;2.30;;
31128;SDS011;17777;48.770;8.944;2023-05-29T04:40:32;2.75;;;2.25;;
31128;SDS011;17777;48.770;8.944;2023-05-29T04:42:58;4.43;;;2.40;;
31128;SDS011;17777;48.770;8.944;2023-05-29T04:45:35;3.90;;;2.30;;
31128;SDS011;17777;48.770;8.944;2023-05-29T04:48:02;3.63;;;2.53;;
31128;SDS011;17777;48.770;8.944;2023-05-29T04:50:30;3.67;;;2.65;;
31128;SDS011;17777;48.770;8.944;2023-05-29T04:52:57;3.50;;;2.28;;
31128;SDS011;17777;48.770;8.944;2023-05-29T04:55:23;3.30;;;2.33;;
31128;SDS011;17777;48.770;8.944;2023-05-29T04:57:49;3.53;;;2.72;;
31128;SDS011;17777;48.770;8.944;2023-05-29T05:00:15;5.97;;;2.80;;
31128;SDS011;17777;48.770;8.944;2023-05-29T05:02:43;3.92;;;2.35;;
31128;SDS011;17777;48.770;8.944;2023-05-29T05:05:12;3.38;;;2.25;;
31128;SDS011;17777;48.770;8.944;2023-05-29T05:07:38;3.47;;;2.10;;
31128;SDS011;17777;48.770;8.944;2023-05-29T05:10:05;2.60;;;2.15;;
31128;SDS011;17777;48.770;8.944;2023-05-29T05:12:32;3.22;;;2.17;;
31128;SDS011;17777;48.770;8.944;2023-05-29T05:15:00;2.83;;;2.30;;
31128;SDS011;17777;48.770;8.944;2023-05-29T05:17:27;4.30;;;2.58;;
31128;SDS011;17777;48.770;8.944;2023-05-29T05:19:53;4.35;;;2.67;;
31128;SDS011;17777;48.770;8.944;2023-05-29T05:22:19;3.63;;;2.40;;
31128;SDS011;17777;48.770;8.944;2023-05-29T05:24:47;4.30;;;2.50;;
31128;SDS011;17777;48.770;8.944;2023-05-29T05:27:13;3.55;;;2.47;;
31128;SDS011;17777;48.770;8.944;2023-05-29T05:29:39;3.53;;;2.58;;
31128;SDS011;17777;48.770;8.944;2023-05-29T05:32:05;2.83;;;2.38;;
31128;SDS011;17777;48.770;8.944;2023-05-29T05:34:32;4.78;;;2.30;;
31128;SDS011;17777;48.770;8.944;2023-05-29T05:36:58;4.47;;;2.60;;
31128;SDS011;17777;48.770;8.944;2023-05-29T05:39:24;4.05;;;2.45;;
31128;SDS011;17777;48.770;8.944;2023-05-29T05:41:50;3.10;;;2.47;;
31128;SDS011;17777;48.770;8.944;2023-05-29T05:44:32;2.85;;;2.22;;
31128;SDS011;17777;48.770;8.944;2023-05-29T05:47:01;3.85;;;2.70;;
31128;SDS011;17777;48.770;8.944;2023-05-29T05:49:28;3.22;;;2.42;;
31128;SDS011;17777;48.770;8.944;2023-05-29T05:51:53;4.78;;;2.30;;
31128;SDS011;17777;48.770;8.944;2023-05-29T05:54:19;2.75;;;2.28;;
31128;SDS011;17777;48.770;8.944;2023-05-29T05:56:45;3.72;;;2.22;;
31128;SDS011;17777;48.770;8.944;2023-05-29T05:59:14;3.75;;;2.42;;
31128;SDS011;17777;48.770;8.944;2023-05-29T06:01:40;4.05;;;2.53;;
31128;SDS011;17777;48.770;8.944;2023-05-29T06:04:07;3.70;;;2.78;;
31128;SDS011;17777;48.770;8.944;2023-05-29T06:06:34;3.35;;;1.85;;
31128;SDS011;17777;48.770;8.944;2023-05-29T06:09:00;3.63;;;2.60;;
31128;SDS011;17777;48.770;8.944;2023-05-29T06:11:27;3.35;;;2.25;;
31128;SDS011;17777;48.770;8.944;2023-05-29T06:13:54;2.85;;;2.22;;
31128;SDS011;17777;48.770;8.944;2023-05-29T06:16:25;3.60;;;2.10;;
31128;SDS011;17777;48.770;8.944;2023-05-29T06:18:51;2.97;;;2.22;;
31128;SDS011;17777;48.770;8.944;2023-05-29T06:21:18;2.92;;;2.00;;
31128;SDS011;17777;48.770;8.944;2023-05-29T06:23:50;5.55;;;2.20;;
31128;SDS011;17777;48.770;8.944;2023-05-29T06:26:16;4.63;;;2.28;;
31128;SDS011;17777;48.770;8.944;2023-05-29T06:28:42;3.45;;;2.20;;
31128;SDS011;17777;48.770;8.944;2023-05-29T06:31:08;3.10;;;2.20;;
31128;SDS011;17777;48.770;8.944;2023-05-29T06:33:35;3.65;;;1.90;;
31128;SDS011;17777;48.770;8.944;2023-05-29T06:36:04;3.83;;;2.25;;
31128;SDS011;17777;48.770;8.944;2023-05-29T06:38:30;4.28;;;2.33;;
31128;SDS011;17777;48.770;8.944;2023-05-29T06:40:57;4.28;;;2.20;;
31128;SDS011;17777;48.770;8.944;2023-05-29T06:43:23;3.75;;;2.45;;
31128;SDS011;17777;48.770;8.944;2023-05-29T06:45:55;2.88;;;1.98;;
31128;SDS011;17777;48.770;8.944;2023-05-29T06:48:21;2.63;;;2.22;;
31128;SDS011;17777;48.770;8.944;2023-05-29T06:50:48;3.33;;;2.20;;
31128;SDS011;17777;48.770;8.944;2023-05-29T06:53:34;2.45;;;1.77;;
31128;SDS011;17777;48.770;8.944;2023-05-29T06:56:01;2.50;;;2.30;;
31128;SDS011;17777;48.770;8.944;2023-05-29T06:58:29;4.70;;;2.28;;
31128;SDS011;17777;48.770;8.944;2023-05-29T07:00:56;4.53;;;2.38;;
31128;SDS011;17777;48.770;8.944;2023-05-29T07:03:32;2.42;;;1.63;;
31128;SDS011;17777;48.770;8.944;2023-05-29T07:06:00;3.13;;;2.00;;
31128;SDS011;17777;48.770;8.944;2023-05-29T07:08:27;2.75;;;1.60;;
31128;SDS011;17777;48.770;8.944;2023-05-29T07:10:53;2.70;;;2.22;;
31128;SDS011;17777;48.770;8.944;2023-05-29T07:13:20;3.28;;;2.00;;
31128;SDS011;17777;48.770;8.944;2023-05-29T07:15:47;3.97;;;1.88;;
31128;SDS011;17777;48.770;8.944;2023-05-29T07:18:14;3.83;;;2.10;;
31128;SDS011;17777;48.770;8.944;2023-05-29T07:20:41;2.90;;;1.98;;
31128;SDS011;17777;48.770;8.944;2023-05-29T07:23:09;2.88;;;2.10;;
31128;SDS011;17777;48.770;8.944;2023-05-29T07:25:35;3.80;;;2.00;;
31128;SDS011;17777;48.770;8.944;2023-05-29T07:28:01;3.13;;;1.83;;
31128;SDS011;17777;48.770;8.944;2023-05-29T07:30:27;4.75;;;1.70;;
31128;SDS011;17777;48.770;8.944;2023-05-29T07:32:53;3.30;;;2.15;;
31128;SDS011;17777;48.770;8.944;2023-05-29T07:35:19;2.97;;;1.92;;
31128;SDS011;17777;48.770;8.944;2023-05-29T07:37:47;3.90;;;2.10;;
31128;SDS011;17777;48.770;8.944;2023-05-29T07:40:15;3.42;;;2.30;;
31128;SDS011;17777;48.770;8.944;2023-05-29T07:42:56;3.75;;;2.22;;
31128;SDS011;17777;48.770;8.944;2023-05-29T07:45:24;4.30;;;2.17;;
31128;SDS011;17777;48.770;8.944;2023-05-29T07:47:50;2.65;;;1.70;;
31128;SDS011;17777;48.770;8.944;2023-05-29T07:50:16;3.38;;;2.08;;
31128;SDS011;17777;48.770;8.944;2023-05-29T07:52:42;3.72;;;2.17;;
31128;SDS011;17777;48.770;8.944;2023-05-29T07:55:09;2.83;;;1.83;;
31128;SDS011;17777;48.770;8.944;2023-05-29T07:57:36;2.67;;;1.92;;
31128;SDS011;17777;48.770;8.944;2023-05-29T08:00:03;3.97;;;2.38;;
31128;SDS011;17777;48.770;8.944;2023-05-29T08:02:34;2.47;;;1.98;;
31128;SDS011;17777;48.770;8.944;2023-05-29T08:05:27;3.80;;;1.90;;
31128;SDS011;17777;48.770;8.944;2023-05-29T08:07:53;3.42;;;2.22;;
31128;SDS011;17777;48.770;8.944;2023-05-29T08:10:18;6.10;;;2.50;;
31128;SDS011;17777;48.770;8.944;2023-05-29T08:12:44;3.95;;;2.47;;
31128;SDS011;17777;48.770;8.944;2023-05-29T08:15:11;3.97;;;2.10;;
31128;SDS011;17777;48.770;8.944;2023-05-29T08:17:37;3.63;;;2.05;;
31128;SDS011;17777;48.770;8.944;2023-05-29T08:20:03;3.65;;;2.30;;
31128;SDS011;17777;48.770;8.944;2023-05-29T08:22:32;5.07;;;2.10;;
31128;SDS011;17777;48.770;8.944;2023-05-29T08:24:59;4.50;;;2.50;;
31128;SDS011;17777;48.770;8.944;2023-05-29T08:27:25;3.55;;;2.33;;
31128;SDS011;17777;48.770;8.944;2023-05-29T08:29:51;3.33;;;2.13;;
31128;SDS011;17777;48.770;8.944;2023-05-29T08:32:16;3.17;;;2.05;;
31128;SDS011;17777;48.770;8.944;2023-05-29T08:34:42;3.47;;;2.30;;
31128;SDS011;17777;48.770;8.944;2023-05-29T08:37:10;3.50;;;2.35;;
31128;SDS011;17777;48.770;8.944;2023-05-29T08:39:36;4.40;;;2.08;;
31128;SDS011;17777;48.770;8.944;2023-05-29T08:42:10;2.83;;;2.13;;
31128;SDS011;17777;48.770;8.944;2023-05-29T08:44:46;4.20;;;2.00;;
31128;SDS011;17777;48.770;8.944;2023-05-29T08:47:16;7.43;;;2.13;;
31128;SDS011;17777;48.770;8.944;2023-05-29T08:49:47;3.65;;;2.28;;
31128;SDS011;17777;48.770;8.944;2023-05-29T08:52:19;3.40;;;2.53;;
31128;SDS011;17777;48.770;8.944;2023-05-29T08:54:48;3.65;;;2.42;;
31128;SDS011;17777;48.770;8.944;2023-05-29T08:57:14;4.38;;;2.20;;
31128;SDS011;17777;48.770;8.944;2023-05-29T08:59:42;4.18;;;2.40;;
31128;SDS011;17777;48.770;8.944;2023-05-29T09:02:10;4.00;;;2.30;;
31128;SDS011;17777;48.770;8.944;2023-05-29T09:04:43;2.47;;;2.17;;
31128;SDS011;17777;48.770;8.944;2023-05-29T09:07:18;3.88;;;2.10;;
31128;SDS011;17777;48.770;8.944;2023-05-29T09:09:45;3.55;;;2.45;;
31128;SDS011;17777;48.770;8.944;2023-05-29T09:12:11;2.97;;;2.17;;
31128;SDS011;17777;48.770;8.944;2023-05-29T09:17:07;4.53;;;2.70;;
31128;SDS011;17777;48.770;8.944;2023-05-29T09:19:35;2.20;;;2.00;;
31128;SDS011;17777;48.770;8.944;2023-05-29T09:22:07;3.08;;;2.33;;
31128;SDS011;17777;48.770;8.944;2023-05-29T09:24:40;3.28;;;2.30;;
31128;SDS011;17777;48.770;8.944;2023-05-29T09:27:08;4.43;;;2.78;;
31128;SDS011;17777;48.770;8.944;2023-05-29T09:29:38;3.38;;;2.40;;
31128;SDS011;17777;48.770;8.944;2023-05-29T09:32:09;8.00;;;2.30;;
31128;SDS011;17777;48.770;8.944;2023-05-29T09:34:39;2.50;;;2.20;;
31128;SDS011;17777;48.770;8.944;2023-05-29T09:37:06;3.42;;;2.20;;
31128;SDS011;17777;48.770;8.944;2023-05-29T09:39:34;2.55;;;2.15;;
31128;SDS011;17777;48.770;8.944;2023-05-29T09:42:11;2.42;;;2.22;;
31128;SDS011;17777;48.770;8.944;2023-05-29T09:44:37;3.38;;;2.30;;
31128;SDS011;17777;48.770;8.944;2023-05-29T09:47:06;5.60;;;2.33;;
31128;SDS011;17777;48.770;8.944;2023-05-29T09:49:33;4.22;;;2.25;;
31128;SDS011;17777;48.770;8.944;2023-05-29T09:51:59;3.15;;;2.17;;
31128;SDS011;17777;48.770;8.944;2023-05-29T09:54:29;2.63;;;2.20;;
31128;SDS011;17777;48.770;8.944;2023-05-29T09:56:56;3.42;;;2.08;;
31128;SDS011;17777;48.770;8.944;2023-05-29T09:59:23;6.45;;;2.20;;
31128;SDS011;17777;48.770;8.944;2023-05-29T10:01:54;4.13;;;2.10;;
31128;SDS011;17777;48.770;8.944;2023-05-29T10:04:30;3.38;;;2.03;;
31128;SDS011;17777;48.770;8.944;2023-05-29T10:07:10;3.15;;;2.10;;
31128;SDS011;17777;48.770;8.944;2023-05-29T10:09:45;4.93;;;2.17;;
31128;SDS011;17777;48.770;8.944;2023-05-29T10:12:16;2.45;;;1.90;;
31128;SDS011;17777;48.770;8.944;2023-05-29T10:14:46;2.80;;;2.13;;
31128;SDS011;17777;48.770;8.944;2023-05-29T10:17:15;3.67;;;2.35;;
31128;SDS011;17777;48.770;8.944;2023-05-29T10:19:43;11.98;;;6.53;;
31128;SDS011;17777;48.770;8.944;2023-05-29T10:22:12;9.80;;;8.57;;
31128;SDS011;17777;48.770;8.944;2023-05-29T10:24:38;6.43;;;5.75;;
31128;SDS011;17777;48.770;8.944;2023-05-29T10:27:05;6.05;;;4.15;;
31128;SDS011;17777;48.770;8.944;2023-05-29T10:29:34;11.75;;;9.05;;
31128;SDS011;17777;48.770;8.944;2023-05-29T10:38:02;5.47;;;3.55;;
31128;SDS011;17777;48.770;8.944;2023-05-29T10:40:37;12.52;;;11.23;;
31128;SDS011;17777;48.770;8.944;2023-05-29T10:43:03;9.63;;;8.57;;
31128;SDS011;17777;48.770;8.944;2023-05-29T10:50:47;9.25;;;7.88;;
31128;SDS011;17777;48.770;8.944;2023-05-29T10:53:14;10.35;;;9.27;;
31128;SDS011;17777;48.770;8.944;2023-05-29T10:55:48;6.25;;;5.60;;
31128;SDS011;17777;48.770;8.944;2023-05-29T10:58:22;6.80;;;4.88;;
31128;SDS011;17777;48.770;8.944;2023-05-29T11:00:50;13.05;;;9.18;;
31128;SDS011;17777;48.770;8.944;2023-05-29T11:03:22;11.95;;;10.65;;
31128;SDS011;17777;48.770;8.944;2023-05-29T11:08:43;4.60;;;3.63;;
31128;SDS011;17777;48.770;8.944;2023-05-29T11:11:52;3.80;;;2.92;;
31128;SDS011;17777;48.770;8.944;2023-05-29T11:15:04;5.00;;;1.85;;
31128;SDS011;17777;48.770;8.944;2023-05-29T11:25:14;5.28;;;4.15;;
31128;SDS011;17777;48.770;8.944;2023-05-29T11:27:41;11.65;;;7.32;;
31128;SDS011;17777;48.770;8.944;2023-05-29T11:30:09;7.25;;;5.88;;
31128;SDS011;17777;48.770;8.944;2023-05-29T11:32:36;4.43;;;4.03;;
31128;SDS011;17777;48.770;8.944;2023-05-29T11:35:07;3.42;;;2.90;;
31128;SDS011;17777;48.770;8.944;2023-05-29T11:37:38;4.13;;;2.47;;
31128;SDS011;17777;48.770;8.944;2023-05-29T11:40:08;4.35;;;2.30;;
31128;SDS011;17777;48.770;8.944;2023-05-29T11:42:35;1.98;;;1.83;;
31128;SDS011;17777;48.770;8.944;2023-05-29T11:47:54;2.30;;;1.60;;
31128;SDS011;17777;48.770;8.944;2023-05-29T11:50:22;2.33;;;1.50;;
31128;SDS011;17777;48.770;8.944;2023-05-29T11:52:53;1.80;;;1.48;;
31128;SDS011;17777;48.770;8.944;2023-05-29T11:55:20;2.65;;;1.98;;
31128;SDS011;17777;48.770;8.944;2023-05-29T11:57:49;2.35;;;1.95;;
31128;SDS011;17777;48.770;8.944;2023-05-29T12:00:26;2.05;;;1.85;;
31128;SDS011;17777;48.770;8.944;2023-05-29T12:02:59;3.63;;;2.30;;
31128;SDS011;17777;48.770;8.944;2023-05-29T12:05:32;3.77;;;2.00;;
31128;SDS011;17777;48.770;8.944;2023-05-29T12:08:23;2.22;;;1.80;;
31128;SDS011;17777;48.770;8.944;2023-05-29T12:10:51;2.45;;;1.60;;
31128;SDS011;17777;48.770;8.944;2023-05-29T12:13:18;2.83;;;1.80;;
31128;SDS011;17777;48.770;8.944;2023-05-29T12:15:45;2.50;;;1.65;;
31128;SDS011;17777;48.770;8.944;2023-05-29T12:18:14;2.42;;;1.70;;
31128;SDS011;17777;48.770;8.944;2023-05-29T12:20:41;2.65;;;1.65;;
31128;SDS011;17777;48.770;8.944;2023-05-29T12:23:07;1.80;;;1.50;;
31128;SDS011;17777;48.770;8.944;2023-05-29T12:25:34;1.65;;;1.27;;
31128;SDS011;17777;48.770;8.944;2023-05-29T12:28:03;2.10;;;1.65;;
31128;SDS011;17777;48.770;8.944;2023-05-29T12:30:29;2.45;;;1.88;;
31128;SDS011;17777;48.770;8.944;2023-05-29T12:32:56;2.13;;;1.60;;
31128;SDS011;17777;48.770;8.944;2023-05-29T12:35:23;2.20;;;1.88;;
31128;SDS011;17777;48.770;8.944;2023-05-29T12:37:55;2.38;;;1.83;;
31128;SDS011;17777;48.770;8.944;2023-05-29T12:40:27;2.08;;;1.75;;
31128;SDS011;17777;48.770;8.944;2023-05-29T12:42:55;2.50;;;1.88;;
31128;SDS011;17777;48.770;8.944;2023-05-29T12:45:29;4.18;;;1.48;;
31128;SDS011;17777;48.770;8.944;2023-05-29T12:47:58;2.53;;;1.90;;
31128;SDS011;17777;48.770;8.944;2023-05-29T12:50:30;1.73;;;1.55;;
31128;SDS011;17777;48.770;8.944;2023-05-29T12:53:09;2.00;;;1.80;;
31128;SDS011;17777;48.770;8.944;2023-05-29T12:55:38;2.13;;;1.70;;
31128;SDS011;17777;48.770;8.944;2023-05-29T12:58:06;2.33;;;1.95;;
31128;SDS011;17777;48.770;8.944;2023-05-29T13:00:34;5.35;;;1.63;;
31128;SDS011;17777;48.770;8.944;2023-05-29T13:03:03;2.53;;;1.67;;
31128;SDS011;17777;48.770;8.944;2023-05-29T13:05:31;2.20;;;2.00;;
31128;SDS011;17777;48.770;8.944;2023-05-29T13:07:57;1.73;;;1.60;;
31128;SDS011;17777;48.770;8.944;2023-05-29T13:10:24;1.52;;;1.40;;
31128;SDS011;17777;48.770;8.944;2023-05-29T13:12:51;1.60;;;1.38;;
31128;SDS011;17777;48.770;8.944;2023-05-29T13:15:22;1.70;;;1.33;;
31128;SDS011;17777;48.770;8.944;2023-05-29T13:17:49;1.55;;;1.45;;
31128;SDS011;17777;48.770;8.944;2023-05-29T13:20:16;2.50;;;1.65;;
31128;SDS011;17777;48.770;8.944;2023-05-29T13:22:43;2.88;;;1.60;;
31128;SDS011;17777;48.770;8.944;2023-05-29T13:25:12;1.77;;;1.60;;
31128;SDS011;17777;48.770;8.944;2023-05-29T13:27:42;4.45;;;1.67;;
31128;SDS011;17777;48.770;8.944;2023-05-29T13:30:10;2.33;;;1.88;;
31128;SDS011;17777;48.770;8.944;2023-05-29T13:32:37;6.47;;;4.45;;
31128;SDS011;17777;48.770;8.944;2023-05-29T13:35:05;4.07;;;3.63;;
31128;SDS011;17777;48.770;8.944;2023-05-29T13:37:31;3.10;;;2.50;;
31128;SDS011;17777;48.770;8.944;2023-05-29T13:39:57;2.22;;;1.95;;
31128;SDS011;17777;48.770;8.944;2023-05-29T13:42:23;2.03;;;1.73;;
31128;SDS011;17777;48.770;8.944;2023-05-29T13:44:49;1.90;;;1.60;;
31128;SDS011;17777;48.770;8.944;2023-05-29T13:47:16;2.67;;;1.73;;
31128;SDS011;17777;48.770;8.944;2023-05-29T13:49:42;1.60;;;1.50;;
31128;SDS011;17777;48.770;8.944;2023-05-29T13:52:08;4.80;;;1.67;;
31128;SDS011;17777;48.770;8.944;2023-05-29T13:54:34;2.33;;;1.35;;
31128;SDS011;17777;48.770;8.944;2023-05-29T13:57:01;3.00;;;1.58;;
31128;SDS011;17777;48.770;8.944;2023-05-29T13:59:28;2.75;;;1.50;;
31128;SDS011;17777;48.770;8.944;2023-05-29T14:01:55;1.80;;;1.65;;
31128;SDS011;17777;48.770;8.944;2023-05-29T14:04:22;1.58;;;1.48;;
31128;SDS011;17777;48.770;8.944;2023-05-29T14:06:47;1.98;;;1.77;;
31128;SDS011;17777;48.770;8.944;2023-05-29T14:09:13;1.83;;;1.58;;
31128;SDS011;17777;48.770;8.944;2023-05-29T14:11:39;2.40;;;1.60;;
31128;SDS011;17777;48.770;8.944;2023-05-29T14:14:05;2.28;;;1.83;;
31128;SDS011;17777;48.770;8.944;2023-05-29T14:16:32;2.00;;;1.70;;
31128;SDS011;17777;48.770;8.944;2023-05-29T14:18:59;1.98;;;1.50;;
31128;SDS011;17777;48.770;8.944;2023-05-29T14:21:25;1.40;;;1.30;;
31128;SDS011;17777;48.770;8.944;2023-05-29T14:23:51;2.13;;;1.60;;
31128;SDS011;17777;48.770;8.944;2023-05-29T14:26:17;2.30;;;1.80;;
31128;SDS011;17777;48.770;8.944;2023-05-29T14:28:43;1.95;;;1.50;;
31128;SDS011;17777;48.770;8.944;2023-05-29T14:31:09;1.80;;;1.50;;
31128;SDS011;17777;48.770;8.944;2023-05-29T14:33:35;2.45;;;1.60;;
31128;SDS011;17777;48.770;8.944;2023-05-29T14:36:04;2.15;;;1.67;;
31128;SDS011;17777;48.770;8.944;2023-05-29T14:38:30;2.80;;;1.70;;
31128;SDS011;17777;48.770;8.944;2023-05-29T14:40:56;2.50;;;1.80;;
31128;SDS011;17777;48.770;8.944;2023-05-29T14:43:22;2.53;;;1.48;;
31128;SDS011;17777;48.770;8.944;2023-05-29T14:45:47;1.52;;;1.40;;
31128;SDS011;17777;48.770;8.944;2023-05-29T14:48:13;2.58;;;1.88;;
31128;SDS011;17777;48.770;8.944;2023-05-29T14:50:41;2.10;;;1.70;;
31128;SDS011;17777;48.770;8.944;2023-05-29T14:53:07;1.83;;;1.73;;
31128;SDS011;17777;48.770;8.944;2023-05-29T14:55:33;1.58;;;1.48;;
31128;SDS011;17777;48.770;8.944;2023-05-29T14:58:03;2.10;;;1.40;;
31128;SDS011;17777;48.770;8.944;2023-05-29T15:00:29;4.55;;;1.50;;
31128;SDS011;17777;48.770;8.944;2023-05-29T15:02:56;1.95;;;1.42;;
31128;SDS011;17777;48.770;8.944;2023-05-29T15:05:24;1.35;;;1.25;;
31128;SDS011;17777;48.770;8.944;2023-05-29T15:07:51;1.77;;;1.25;;
31128;SDS011;17777;48.770;8.944;2023-05-29T15:10:20;4.97;;;1.40;;
31128;SDS011;17777;48.770;8.944;2023-05-29T15:12:46;3.05;;;1.60;;
31128;SDS011;17777;48.770;8.944;2023-05-29T15:15:12;2.03;;;1.52;;
31128;SDS011;17777;48.770;8.944;2023-05-29T15:17:38;1.55;;;1.40;;
31128;SDS011;17777;48.770;8.944;2023-05-29T15:20:05;2.40;;;1.45;;
31128;SDS011;17777;48.770;8.944;2023-05-29T15:22:31;1.88;;;1.50;;
31128;SDS011;17777;48.770;8.944;2023-05-29T15:24:57;1.48;;;1.38;;
31128;SDS011;17777;48.770;8.944;2023-05-29T15:27:22;1.40;;;1.30;;